Time;durP1;ratioP1;P1;durP2;ratioP2;P2;SDS_P1;SDS_P2;PMS_P1;PMS_P2;Temp;Humidity;BMP_temperature;BMP_pressure;BME280_temperature;BME280_humidity;BME280_pressure;Samples;Min_cycle;Max_cycle;Signal;HPM_P1;HPM_P2
2020/04/03 00:01:22;;;;;;;23.5;20.5;;;;;;;5.66;55.28809;953.6833;;;;
2020/04/03 00:04:07;;;;;;;25;21.3;;;;;;;5.61;55.22461;953.6972;;;;
2020/04/03 00:06:32;;;;;;;24.4;20;;;;;;;5.67;55.32422;953.7288;;;;
2020/04/03 00:08:58;;;;;;;23.5;20.3;;;;;;;5.6;55.31348;953.663;;;;
2020/04/03 00:11:31;;;;;;;24.8;20.3;;;;;;;5.61;55.29297;953.7271;;;;
2020/04/03 00:13:56;;;;;;;22.8;19.5;;;;;;;5.6;55.64453;953.7375;;;;
2020/04/03 00:16:21;;;;;;;24.1;19.9;;;;;;;5.59;54.86914;953.7466;;;;
2020/04/03 00:18:51;;;;;;;24.7;20.7;;;;;;;5.5;56.20117;953.8281;;;;
2020/04/03 00:21:16;;;;;;;26.8;20.1;;;;;;;5.47;55.34375;953.8494;;;;
2020/04/03 00:23:41;;;;;;;24.4;20.2;;;;;;;5.53;55.69141;953.7974;;;;
2020/04/03 00:26:06;;;;;;;25.4;20.7;;;;;;;5.54;55.4082;953.8359;;;;
2020/04/03 00:31:40;;;;;;;24.6;20.3;;;;;;;5.49;54.61816;953.8805;;;;
2020/04/03 00:33:47;;;;;;;23.5;19.7;;;;;;;5.4;54.75391;953.9084;;;;
2020/04/03 00:36:00;;;;;;;23.1;20.3;;;;;;;5.41;54.98242;953.8998;;;;
2020/04/03 00:39:45;;;;;;;22.5;18.7;;;;;;;5.41;55.1875;953.8894;;;;
2020/04/03 00:42:10;;;;;;;22.6;19.3;;;;;;;5.43;55.04199;953.9094;;;;
2020/04/03 00:44:35;;;;;;;22.2;19.2;;;;;;;5.35;54.57617;953.8997;;;;
2020/04/03 00:47:00;;;;;;;21.7;19;;;;;;;5.35;54.30371;953.9554;;;;
2020/04/03 00:49:25;;;;;;;22.3;19.4;;;;;;;5.37;54.06836;953.9464;;;;
2020/04/03 00:51:50;;;;;;;24.1;19.3;;;;;;;5.36;54.03223;954.0084;;;;
2020/04/03 00:54:15;;;;;;;21.2;18.9;;;;;;;5.44;53.64551;953.9977;;;;
2020/04/03 00:56:40;;;;;;;22.6;18.9;;;;;;;5.41;53.57129;953.9838;;;;
2020/04/03 00:59:06;;;;;;;23.9;19.6;;;;;;;5.41;53.78809;953.9766;;;;
2020/04/03 01:01:31;;;;;;;22.6;18.3;;;;;;;5.38;53.65918;953.9433;;;;
2020/04/03 01:03:57;;;;;;;20.3;18;;;;;;;5.35;53.66797;954.0067;;;;
2020/04/03 01:06:22;;;;;;;21.5;18;;;;;;;5.38;53.52344;954.0193;;;;
2020/04/03 01:08:47;;;;;;;22.3;18.1;;;;;;;5.39;53.08105;954.0181;;;;
2020/04/03 01:11:12;;;;;;;21.9;17.7;;;;;;;5.42;53.2334;954.007;;;;
2020/04/03 01:13:37;;;;;;;21.1;18.1;;;;;;;5.39;53.00195;954.032;;;;
2020/04/03 01:16:03;;;;;;;21.6;18.6;;;;;;;5.37;53.14746;953.9875;;;;
2020/04/03 01:18:27;;;;;;;21.1;17.8;;;;;;;5.28;53.77148;954.0641;;;;
2020/04/03 01:20:52;;;;;;;20.9;17.6;;;;;;;5.31;53.19629;954.0691;;;;
2020/04/03 01:23:17;;;;;;;21;18;;;;;;;5.3;53.30859;954.0687;;;;
2020/04/03 01:25:42;;;;;;;22.6;18.1;;;;;;;5.36;53.4873;954.12;;;;
2020/04/03 01:28:07;;;;;;;22.9;18.3;;;;;;;5.36;53.57813;954.1208;;;;
2020/04/03 01:30:32;;;;;;;20.5;17.6;;;;;;;5.28;53.77148;954.1278;;;;
2020/04/03 01:32:58;;;;;;;23.3;18.3;;;;;;;5.26;53.72461;954.1308;;;;
2020/04/03 01:35:23;;;;;;;21.1;17.9;;;;;;;5.26;53.72363;954.199;;;;
2020/04/03 01:37:48;;;;;;;22.6;17.8;;;;;;;5.14;53.9248;954.1744;;;;
2020/04/03 01:40:13;;;;;;;21.2;18;;;;;;;5.03;55.44629;954.2076;;;;
2020/04/03 01:42:38;;;;;;;20.7;17.5;;;;;;;5.08;54.49805;954.2073;;;;
2020/04/03 01:45:03;;;;;;;20.4;17.9;;;;;;;5.07;54.76855;954.2177;;;;
2020/04/03 01:47:28;;;;;;;21.2;18.7;;;;;;;5.29;53.81934;954.2581;;;;
2020/04/03 01:49:54;;;;;;;20.8;18.1;;;;;;;5.18;54.15723;954.2396;;;;
2020/04/03 01:52:19;;;;;;;19.6;17.4;;;;;;;5.17;54.33789;954.2544;;;;
2020/04/03 01:54:44;;;;;;;20.5;17.6;;;;;;;5.09;54.31738;954.2975;;;;
2020/04/03 01:57:09;;;;;;;20.3;17.5;;;;;;;5.2;54.39941;954.291;;;;
2020/04/03 01:59:34;;;;;;;20.7;17.7;;;;;;;5.08;54.50781;954.3655;;;;
2020/04/03 02:01:59;;;;;;;21.4;17.9;;;;;;;5.03;54.67285;954.3884;;;;
2020/04/03 02:04:25;;;;;;;21.6;17.8;;;;;;;5.01;54.80664;954.366;;;;
2020/04/03 02:06:50;;;;;;;19.3;16.9;;;;;;;5;54.95215;954.4359;;;;
2020/04/03 02:09:15;;;;;;;20.4;17.4;;;;;;;5.09;55.12305;954.4177;;;;
2020/04/03 02:12:04;;;;;;;20.4;18;;;;;;;5.01;55.77246;954.4547;;;;
2020/04/03 02:14:29;;;;;;;23;18.4;;;;;;;4.92;55.4082;954.4988;;;;
2020/04/03 02:16:54;;;;;;;21.9;18.3;;;;;;;4.85;56.1377;954.4835;;;;
2020/04/03 02:19:20;;;;;;;20.4;17.8;;;;;;;4.86;56.22852;954.533;;;;
2020/04/03 02:21:46;;;;;;;21.5;17.6;;;;;;;4.95;55.52441;954.5076;;;;
2020/04/03 02:24:31;;;;;;;19.1;17.1;;;;;;;4.99;55.47461;954.4742;;;;
2020/04/03 02:26:46;;;;;;;20.5;17.6;;;;;;;4.93;55.77344;954.5198;;;;
2020/04/03 02:29:11;;;;;;;21.7;17.4;;;;;;;4.9;55.76855;954.5179;;;;
2020/04/03 02:31:37;;;;;;;21.5;17.8;;;;;;;4.78;55.91211;954.519;;;;
2020/04/03 02:34:01;;;;;;;20.7;17.7;;;;;;;4.7;56.49219;954.5762;;;;
2020/04/03 02:36:27;;;;;;;20.3;17.8;;;;;;;4.83;56.49707;954.5563;;;;
2020/04/03 02:38:52;;;;;;;22.6;17.9;;;;;;;4.78;56.35352;954.6214;;;;
2020/04/03 02:41:17;;;;;;;21.1;18.1;;;;;;;4.64;56.8252;954.6301;;;;
2020/04/03 02:43:42;;;;;;;21.5;17.8;;;;;;;4.72;56.59766;954.6802;;;;
2020/04/03 02:46:07;;;;;;;21.5;17.8;;;;;;;4.73;56.79102;954.6273;;;;
2020/04/03 02:48:32;;;;;;;22.3;18.2;;;;;;;4.68;57.35254;954.6619;;;;
2020/04/03 02:50:58;;;;;;;19.2;17.1;;;;;;;4.6;57.23926;954.6817;;;;
2020/04/03 02:53:23;;;;;;;20.9;17.8;;;;;;;4.62;57.19629;954.7381;;;;
2020/04/03 02:55:48;;;;;;;21.1;17.4;;;;;;;4.49;58.21094;954.7436;;;;
2020/04/03 02:58:13;;;;;;;21.1;18.4;;;;;;;4.43;58.45313;954.7528;;;;
2020/04/03 03:00:38;;;;;;;22;18.1;;;;;;;4.43;58.5332;954.7326;;;;
2020/04/03 03:03:03;;;;;;;20.8;17.9;;;;;;;4.44;58.27344;954.7579;;;;
2020/04/03 03:05:28;;;;;;;20.7;18.3;;;;;;;4.37;59.08984;954.76;;;;
2020/04/03 03:07:53;;;;;;;22;18.8;;;;;;;4.37;58.08105;954.7422;;;;
2020/04/03 03:10:18;;;;;;;21.2;18.4;;;;;;;4.36;58.12598;954.7428;;;;
2020/04/03 03:12:43;;;;;;;24.4;18.1;;;;;;;4.36;58.0918;954.7679;;;;
2020/04/03 03:15:09;;;;;;;20.5;18.3;;;;;;;4.39;58.14063;954.7989;;;;
2020/04/03 03:17:34;;;;;;;22.5;18.6;;;;;;;4.31;59.41309;954.7648;;;;
2020/04/03 03:19:59;;;;;;;20.9;18.4;;;;;;;4.29;58.66211;954.8076;;;;
2020/04/03 03:22:24;;;;;;;22.1;18.3;;;;;;;4.33;58.41699;954.8128;;;;
2020/04/03 03:24:50;;;;;;;21.4;18.9;;;;;;;4.29;58.89844;954.8768;;;;
2020/04/03 03:27:15;;;;;;;20.2;18;;;;;;;4.29;59.375;954.8873;;;;
2020/04/03 03:29:40;;;;;;;21;17.9;;;;;;;4.32;59.20898;954.8995;;;;
2020/04/03 03:32:05;;;;;;;22.4;18.3;;;;;;;4.34;58.92773;954.9303;;;;
2020/04/03 03:34:30;;;;;;;21.4;18.7;;;;;;;4.37;58.6377;954.937;;;;
2020/04/03 03:36:56;;;;;;;21.1;18;;;;;;;4.44;58.76074;954.9384;;;;
2020/04/03 03:40:36;;;;;;;22.6;18.4;;;;;;;4.24;59.75293;954.9894;;;;
2020/04/03 03:43:01;;;;;;;21.3;18.6;;;;;;;4.11;59.99609;954.9995;;;;
2020/04/03 03:45:26;;;;;;;22;19.1;;;;;;;4.05;60.00977;955.0303;;;;
2020/04/03 03:47:51;;;;;;;22.2;18.6;;;;;;;4.19;59.62207;955.0048;;;;
2020/04/03 03:50:16;;;;;;;22.5;18.6;;;;;;;3.94;60.76563;955.0101;;;;
2020/04/03 03:52:41;;;;;;;22.1;19.3;;;;;;;3.97;60.82715;955.0081;;;;
2020/04/03 03:55:06;;;;;;;24.9;19;;;;;;;3.98;60.4209;955.111;;;;
2020/04/03 03:57:31;;;;;;;21.6;18.7;;;;;;;3.92;60.9209;955.1292;;;;
2020/04/03 03:59:57;;;;;;;23;18.9;;;;;;;3.97;60.53125;955.1289;;;;
2020/04/03 04:02:31;;;;;;;22.1;19.4;;;;;;;3.97;60.83789;955.1007;;;;
2020/04/03 04:05:08;;;;;;;21.8;19.4;;;;;;;3.98;60.56836;955.1464;;;;
2020/04/03 04:07:21;;;;;;;24.4;19.2;;;;;;;4.01;60.77637;955.2153;;;;
2020/04/03 04:09:46;;;;;;;22.5;18.7;;;;;;;4.12;60.45215;955.2844;;;;
2020/04/03 04:12:11;;;;;;;22;19.7;;;;;;;4.02;60.5957;955.3026;;;;
2020/04/03 04:14:36;;;;;;;22;19;;;;;;;4.12;60.39551;955.3159;;;;
2020/04/03 04:17:01;;;;;;;22.8;18.9;;;;;;;4.11;60.18945;955.3551;;;;
2020/04/03 04:19:26;;;;;;;23.1;19;;;;;;;4.14;60.09082;955.3987;;;;
2020/04/03 04:21:51;;;;;;;26;19.9;;;;;;;3.84;60.85352;955.378;;;;
2020/04/03 04:24:16;;;;;;;22.4;19.5;;;;;;;3.86;61.0957;955.4338;;;;
2020/04/03 04:26:41;;;;;;;23.8;19.8;;;;;;;3.8;61.2334;955.5378;;;;
2020/04/03 04:29:06;;;;;;;23.8;19.1;;;;;;;3.82;61.66504;955.5786;;;;
2020/04/03 04:31:32;;;;;;;24.3;19.9;;;;;;;3.63;61.8877;955.5691;;;;
2020/04/03 04:33:57;;;;;;;21.8;19.3;;;;;;;3.73;61.71094;955.5679;;;;
2020/04/03 04:36:22;;;;;;;22.6;19.1;;;;;;;3.75;61.98535;955.6149;;;;
2020/04/03 04:38:47;;;;;;;24.4;19.8;;;;;;;3.74;61.81348;955.6556;;;;
2020/04/03 04:41:12;;;;;;;22.3;19.9;;;;;;;3.65;62.78613;955.6763;;;;
2020/04/03 04:43:37;;;;;;;23.9;20.1;;;;;;;3.66;62.42383;955.6387;;;;
2020/04/03 04:46:03;;;;;;;23.8;20.1;;;;;;;3.62;62.80469;955.6509;;;;
2020/04/03 04:48:28;;;;;;;26.3;20.8;;;;;;;3.5;62.99023;955.7043;;;;
2020/04/03 04:50:54;;;;;;;24.2;20.6;;;;;;;3.55;62.96387;955.6972;;;;
2020/04/03 04:53:19;;;;;;;23;19.9;;;;;;;3.69;62.50684;955.7316;;;;
2020/04/03 04:55:44;;;;;;;23.4;20.7;;;;;;;3.69;62.46289;955.8139;;;;
2020/04/03 04:58:09;;;;;;;24.4;19.8;;;;;;;3.7;62.97363;955.7665;;;;
2020/04/03 05:00:35;;;;;;;23.6;19.7;;;;;;;3.77;62.16992;955.8099;;;;
2020/04/03 05:03:00;;;;;;;25;21;;;;;;;3.66;62.60449;955.8859;;;;
2020/04/03 05:05:25;;;;;;;22.8;20;;;;;;;3.78;62.77148;955.8931;;;;
2020/04/03 05:07:50;;;;;;;22.1;19.7;;;;;;;3.83;62.24609;955.9297;;;;
2020/04/03 05:10:15;;;;;;;23.1;19.7;;;;;;;3.76;62.11035;955.9786;;;;
2020/04/03 05:12:40;;;;;;;25.1;20.1;;;;;;;3.59;63.83008;956.0078;;;;
2020/04/03 05:15:06;;;;;;;24.3;20.5;;;;;;;3.64;62.94336;955.9689;;;;
2020/04/03 05:17:31;;;;;;;24.8;20.8;;;;;;;3.75;62.29102;955.9933;;;;
2020/04/03 05:19:56;;;;;;;27.6;20.7;;;;;;;3.74;62.52734;956.0359;;;;
2020/04/03 05:22:21;;;;;;;24.7;20.6;;;;;;;3.75;62.60938;956.0734;;;;
2020/04/03 05:24:46;;;;;;;24.9;19.7;;;;;;;3.66;62.85352;956.1356;;;;
2020/04/03 05:27:12;;;;;;;26.2;20.2;;;;;;;3.75;62.8916;956.1289;;;;
2020/04/03 05:29:37;;;;;;;25.1;21.1;;;;;;;3.71;62.72754;956.1492;;;;
2020/04/03 05:32:02;;;;;;;23.9;20.2;;;;;;;3.72;62.81934;956.1511;;;;
2020/04/03 05:34:27;;;;;;;23.4;20.1;;;;;;;3.86;62.47656;956.1331;;;;
2020/04/03 05:36:52;;;;;;;25.5;20.6;;;;;;;3.85;62.83789;956.1955;;;;
2020/04/03 05:39:17;;;;;;;25.6;20.8;;;;;;;3.92;62.97266;956.1976;;;;
2020/04/03 05:41:42;;;;;;;25.4;21.1;;;;;;;3.99;62.58691;956.2912;;;;
2020/04/03 05:44:07;;;;;;;24.7;20.9;;;;;;;4.04;62.44727;956.3353;;;;
2020/04/03 05:46:32;;;;;;;25.9;21.2;;;;;;;3.98;62.55176;956.2733;;;;
2020/04/03 05:48:57;;;;;;;25.2;21.3;;;;;;;3.98;62.95801;956.3159;;;;
2020/04/03 05:51:22;;;;;;;25.4;22.1;;;;;;;4.06;62.70898;956.3131;;;;
2020/04/03 05:53:48;;;;;;;25.1;21.6;;;;;;;3.99;62.7002;956.3454;;;;
2020/04/03 05:56:13;;;;;;;27.3;22;;;;;;;4.01;62.65723;956.3412;;;;
2020/04/03 05:58:38;;;;;;;26.4;21.8;;;;;;;4.04;62.27637;956.3948;;;;
2020/04/03 06:01:03;;;;;;;24.1;21.1;;;;;;;4.15;61.82813;956.427;;;;
2020/04/03 06:03:28;;;;;;;27.5;22.1;;;;;;;4.14;61.75781;956.4017;;;;
2020/04/03 06:05:53;;;;;;;27.4;21.5;;;;;;;3.98;62.64258;956.4659;;;;
2020/04/03 06:08:18;;;;;;;27.1;21.6;;;;;;;4.04;62.37793;956.4694;;;;
2020/04/03 06:10:44;;;;;;;26.1;21.1;;;;;;;4.2;62.06152;956.5233;;;;
2020/04/03 06:13:09;;;;;;;24.7;21.7;;;;;;;4.15;62.04395;956.59;;;;
2020/04/03 06:15:34;;;;;;;25.4;21.6;;;;;;;4.27;61.84375;956.6718;;;;
2020/04/03 06:17:59;;;;;;;25.8;21.8;;;;;;;4.33;61.93359;956.7307;;;;
2020/04/03 06:20:24;;;;;;;25;22.1;;;;;;;4.45;61.97363;956.6893;;;;
2020/04/03 06:22:49;;;;;;;26.6;22.1;;;;;;;4.38;61.99805;956.7125;;;;
2020/04/03 06:25:15;;;;;;;25.2;21.2;;;;;;;4.49;61.61523;956.7708;;;;
2020/04/03 06:27:40;;;;;;;27;21.7;;;;;;;4.48;61.52344;956.783;;;;
2020/04/03 06:30:05;;;;;;;26.2;22.4;;;;;;;4.54;61.57813;956.7498;;;;
2020/04/03 06:32:30;;;;;;;26.9;22.8;;;;;;;4.64;61.3418;956.8199;;;;
2020/04/03 06:34:55;;;;;;;31.8;22.6;;;;;;;4.72;60.86719;956.8323;;;;
2020/04/03 06:37:20;;;;;;;27;22.9;;;;;;;4.71;60.97656;956.8416;;;;
2020/04/03 06:39:46;;;;;;;27.7;21.6;;;;;;;4.88;61.07031;956.8594;;;;
2020/04/03 06:42:11;;;;;;;25.4;22.7;;;;;;;5.04;61.28613;956.8828;;;;
2020/04/03 06:44:36;;;;;;;27.3;22.5;;;;;;;5.04;60.08203;956.8958;;;;
2020/04/03 06:47:01;;;;;;;28.7;23.3;;;;;;;5.06;60.66406;956.9144;;;;
2020/04/03 06:49:26;;;;;;;27.9;22.8;;;;;;;5.12;60.25098;956.9147;;;;
2020/04/03 06:51:51;;;;;;;28.5;23.9;;;;;;;5.02;60.6709;956.9216;;;;
2020/04/03 06:54:16;;;;;;;27.1;23.2;;;;;;;5.2;60.78711;956.9578;;;;
2020/04/03 06:56:41;;;;;;;29.1;23.8;;;;;;;5.29;59.94727;957.0062;;;;
2020/04/03 06:59:06;;;;;;;26.4;22.7;;;;;;;5.47;59.5752;956.9586;;;;
2020/04/03 07:01:31;;;;;;;28;23.2;;;;;;;5.22;59.94824;957.032;;;;
2020/04/03 07:03:56;;;;;;;29.7;23.5;;;;;;;5.49;60.27051;957.0648;;;;
2020/04/03 07:06:21;;;;;;;26.9;23.5;;;;;;;5.4;59.43848;957.0828;;;;
2020/04/03 07:08:47;;;;;;;27.3;24;;;;;;;5.64;59.34766;957.1039;;;;
2020/04/03 07:11:12;;;;;;;28.3;24.6;;;;;;;5.64;59.31348;957.1541;;;;
2020/04/03 07:13:37;;;;;;;29.4;25.5;;;;;;;5.68;59.14844;957.1241;;;;
2020/04/03 07:16:02;;;;;;;30.4;25.3;;;;;;;5.7;59.18555;957.1715;;;;
2020/04/03 07:18:27;;;;;;;27.5;24.5;;;;;;;5.84;59.08008;957.1649;;;;
2020/04/03 07:20:52;;;;;;;30.4;26.1;;;;;;;5.63;59.42578;957.182;;;;
2020/04/03 07:23:18;;;;;;;28.7;25.6;;;;;;;5.69;59.86523;957.2067;;;;
2020/04/03 07:25:43;;;;;;;29.6;25.7;;;;;;;5.86;59.65039;957.2687;;;;
2020/04/03 07:28:08;;;;;;;28.5;25.5;;;;;;;6.03;59.33301;957.282;;;;
2020/04/03 07:30:33;;;;;;;29.2;26;;;;;;;6.08;58.83887;957.2676;;;;
2020/04/03 07:32:58;;;;;;;28.6;25.6;;;;;;;6.24;58.80371;957.2888;;;;
2020/04/03 07:35:23;;;;;;;31.5;28.2;;;;;;;6.29;59.15234;957.3138;;;;
2020/04/03 07:37:48;;;;;;;30.5;27.4;;;;;;;6.27;59.07129;957.3059;;;;
2020/04/03 07:40:13;;;;;;;30.5;27.4;;;;;;;6.13;60.23438;957.3369;;;;
2020/04/03 07:42:38;;;;;;;32.9;29.3;;;;;;;6.29;60.37109;957.3714;;;;
2020/04/03 07:45:03;;;;;;;30.9;27.7;;;;;;;6.55;58.74316;957.3553;;;;
2020/04/03 07:47:29;;;;;;;30.7;27.4;;;;;;;6.43;58.99121;957.384;;;;
2020/04/03 07:49:54;;;;;;;34;28.4;;;;;;;6.57;58.76953;957.4221;;;;
2020/04/03 07:52:19;;;;;;;31.6;28.4;;;;;;;6.74;58.78027;957.3423;;;;
2020/04/03 07:54:44;;;;;;;30.8;27.8;;;;;;;6.73;59.31641;957.3867;;;;
2020/04/03 07:57:09;;;;;;;31.8;28.4;;;;;;;6.72;58.35645;957.4331;;;;
2020/04/03 07:59:34;;;;;;;29.3;26.3;;;;;;;6.65;58.32422;957.4659;;;;
2020/04/03 08:01:59;;;;;;;29.6;26.5;;;;;;;6.88;58.51465;957.4611;;;;
2020/04/03 08:04:25;;;;;;;29.7;26.6;;;;;;;6.78;58.79785;957.4746;;;;
2020/04/03 08:06:50;;;;;;;30.1;27;;;;;;;6.7;59.1748;957.5206;;;;
2020/04/03 08:09:15;;;;;;;30;26.9;;;;;;;6.91;58.45117;957.5617;;;;
2020/04/03 08:11:40;;;;;;;28.8;25.9;;;;;;;7.1;58.22461;957.5204;;;;
2020/04/03 08:14:05;;;;;;;28.7;25.8;;;;;;;7.2;57.80566;957.5306;;;;
2020/04/03 08:16:30;;;;;;;30.2;27.1;;;;;;;7.15;57.58105;957.5181;;;;
2020/04/03 08:18:59;;;;;;;29.5;26.6;;;;;;;7.2;57.87402;957.5273;;;;
2020/04/03 08:21:20;;;;;;;28.7;25.7;;;;;;;7.2;57.98828;957.5557;;;;
2020/04/03 08:23:45;;;;;;;29;26;;;;;;;7.25;58.66895;957.55;;;;
2020/04/03 08:26:11;;;;;;;29.1;26;;;;;;;7.29;58.12695;957.5916;;;;
2020/04/03 08:28:36;;;;;;;28;25.2;;;;;;;7.37;58.05762;957.632;;;;
2020/04/03 08:31:01;;;;;;;29.4;26.3;;;;;;;7.37;57.57813;957.611;;;;
2020/04/03 08:33:26;;;;;;;27.9;25;;;;;;;7.43;58.22461;957.6036;;;;
2020/04/03 08:35:51;;;;;;;26.4;23.9;;;;;;;7.43;57.31055;957.61;;;;
2020/04/03 08:38:16;;;;;;;26.8;24.1;;;;;;;7.59;56.71484;957.7076;;;;
2020/04/03 08:40:41;;;;;;;29.1;26.2;;;;;;;7.66;56.29004;957.717;;;;
2020/04/03 08:43:06;;;;;;;25.6;23.1;;;;;;;7.54;56.51367;957.7275;;;;
2020/04/03 08:45:32;;;;;;;26.2;23.5;;;;;;;7.69;56.39648;957.7283;;;;
2020/04/03 08:47:57;;;;;;;27.3;24.5;;;;;;;7.9;56.1377;957.7332;;;;
2020/04/03 08:50:22;;;;;;;25;22.5;;;;;;;7.81;55.83984;957.7575;;;;
2020/04/03 08:52:48;;;;;;;23.7;21.2;;;;;;;7.84;55.26074;957.7491;;;;
2020/04/03 08:55:13;;;;;;;24.6;21.6;;;;;;;7.94;54.78223;957.7414;;;;
2020/04/03 08:57:38;;;;;;;23.1;20.8;;;;;;;8.03;54.97656;957.815;;;;
2020/04/03 09:00:04;;;;;;;20.5;18.4;;;;;;;8.13;54.08496;957.85;;;;
2020/04/03 09:02:29;;;;;;;21;18.9;;;;;;;8;54.96094;957.785;;;;
2020/04/03 09:04:54;;;;;;;21;18.9;;;;;;;7.95;54.6582;957.8186;;;;
2020/04/03 09:07:19;;;;;;;23.1;19.2;;;;;;;8.13;54.55566;957.824;;;;
2020/04/03 09:09:44;;;;;;;18;16.2;;;;;;;8.37;52.31836;957.8925;;;;
2020/04/03 09:12:09;;;;;;;20.1;18;;;;;;;8.28;53.43945;957.883;;;;
2020/04/03 09:14:34;;;;;;;20.9;18.7;;;;;;;8.15;53.40137;957.7914;;;;
2020/04/03 09:16:59;;;;;;;19.3;17.4;;;;;;;8.23;53.71973;957.8543;;;;
2020/04/03 09:19:24;;;;;;;19.8;17.7;;;;;;;8.31;53.16992;957.8042;;;;
2020/04/03 09:21:49;;;;;;;19.8;17.8;;;;;;;8.35;52.91113;957.8038;;;;
2020/04/03 09:24:15;;;;;;;18.6;16.6;;;;;;;8.39;53.14551;957.8398;;;;
2020/04/03 09:26:40;;;;;;;22;19.3;;;;;;;8.53;53.02344;957.892;;;;
2020/04/03 09:29:05;;;;;;;21.4;18.4;;;;;;;8.27;53.50684;957.8439;;;;
2020/04/03 09:31:30;;;;;;;20;18.1;;;;;;;8.3;53.15527;957.9152;;;;
2020/04/03 09:33:55;;;;;;;20.1;18;;;;;;;8.48;52.19336;957.8892;;;;
2020/04/03 09:36:20;;;;;;;20.1;18;;;;;;;8.65;52.28418;957.9161;;;;
2020/04/03 09:40:58;;;;;;;21;19;;;;;;;8.88;52.45898;957.8951;;;;
2020/04/03 09:43:23;;;;;;;20.1;18.1;;;;;;;8.99;51.19043;957.897;;;;
2020/04/03 09:45:49;;;;;;;20.3;18.2;;;;;;;8.99;51.56738;957.8603;;;;
2020/04/03 09:48:14;;;;;;;21.5;18.9;;;;;;;8.85;51.81348;957.9228;;;;
2020/04/03 09:50:39;;;;;;;20.4;18.4;;;;;;;8.8;51.85352;957.948;;;;
2020/04/03 09:53:04;;;;;;;17.9;16;;;;;;;9.14;49.34766;957.875;;;;
2020/04/03 09:55:29;;;;;;;18.1;16.3;;;;;;;8.84;49.25684;957.8505;;;;
2020/04/03 09:57:54;;;;;;;18.2;16.4;;;;;;;8.69;50.77441;957.8738;;;;
2020/04/03 10:00:19;;;;;;;18.2;15.6;;;;;;;9.14;49.92188;957.9376;;;;
2020/04/03 10:02:44;;;;;;;15.7;14.1;;;;;;;9.26;48.4209;957.8752;;;;
2020/04/03 10:05:09;;;;;;;16;14.3;;;;;;;9.24;48.05176;957.8408;;;;
2020/04/03 10:07:34;;;;;;;16.7;15;;;;;;;9.36;47.88184;957.8803;;;;
2020/04/03 10:09:59;;;;;;;16.3;14.6;;;;;;;9.28;48.44629;957.9;;;;
2020/04/03 10:12:25;;;;;;;16.5;14.7;;;;;;;9.31;48.46191;957.9015;;;;
2020/04/03 10:14:50;;;;;;;16.3;14.4;;;;;;;9.39;48.37793;957.8406;;;;
2020/04/03 10:17:15;;;;;;;17.8;16;;;;;;;9.54;48.18945;957.8239;;;;
2020/04/03 10:19:40;;;;;;;16.6;14.8;;;;;;;9.65;47.6377;957.848;;;;
2020/04/03 10:22:05;;;;;;;16.8;15;;;;;;;9.72;47.37109;957.8904;;;;
2020/04/03 10:24:30;;;;;;;16.5;14.7;;;;;;;9.62;47.31348;957.8459;;;;
2020/04/03 10:26:55;;;;;;;16.4;14.7;;;;;;;9.64;47.61426;957.861;;;;
2020/04/03 10:29:20;;;;;;;15.5;14;;;;;;;9.62;46.96875;957.8361;;;;
2020/04/03 10:31:45;;;;;;;15.8;14.2;;;;;;;9.51;47.20996;957.8505;;;;
2020/04/03 10:34:10;;;;;;;15.7;14.1;;;;;;;9.79;47.0791;957.8639;;;;
2020/04/03 10:36:35;;;;;;;16.1;14.4;;;;;;;9.93;46.93359;957.8203;;;;
2020/04/03 10:39:00;;;;;;;15.7;14.1;;;;;;;10.02;46.69043;957.8195;;;;
2020/04/03 10:41:26;;;;;;;15.2;13.6;;;;;;;10.02;45.58594;957.8061;;;;
2020/04/03 10:43:51;;;;;;;15.4;12.7;;;;;;;9.96;45.69531;957.8027;;;;
2020/04/03 10:46:16;;;;;;;14.8;13.3;;;;;;;9.77;45.78027;957.8065;;;;
2020/04/03 10:48:41;;;;;;;16.4;13.1;;;;;;;9.94;45.58887;957.8195;;;;
2020/04/03 10:51:06;;;;;;;14;12.5;;;;;;;10.2;45.19141;957.7597;;;;
2020/04/03 10:53:31;;;;;;;14;12.5;;;;;;;10;44.83789;957.7458;;;;
2020/04/03 10:55:56;;;;;;;14.5;12.8;;;;;;;10.47;45.34668;957.7617;;;;
2020/04/03 10:58:22;;;;;;;13.2;11.9;;;;;;;10.61;43.72754;957.8158;;;;
2020/04/03 11:00:47;;;;;;;14.6;12.6;;;;;;;10.36;43.9541;957.745;;;;
2020/04/03 11:03:12;;;;;;;14.3;12.8;;;;;;;10.09;44.05469;957.7083;;;;
2020/04/03 11:05:37;;;;;;;14.2;12.8;;;;;;;10.03;44.46191;957.6763;;;;
2020/04/03 11:08:02;;;;;;;15;11.8;;;;;;;10.38;44.26758;957.6754;;;;
2020/04/03 11:10:27;;;;;;;13.9;12.3;;;;;;;10.39;44.00391;957.6511;;;;
2020/04/03 11:12:53;;;;;;;12.3;11;;;;;;;10.72;43.3584;957.7019;;;;
2020/04/03 11:15:18;;;;;;;13.2;11.9;;;;;;;10.58;43.32129;957.6475;;;;
2020/04/03 11:17:44;;;;;;;14.2;12.4;;;;;;;10.85;43.60156;957.6581;;;;
2020/04/03 11:20:09;;;;;;;13.5;11.6;;;;;;;10.95;41.53906;957.6072;;;;
2020/04/03 11:22:34;;;;;;;12.5;10.5;;;;;;;10.91;42.24805;957.5889;;;;
2020/04/03 11:24:59;;;;;;;12.2;10;;;;;;;11.11;41.51855;957.5836;;;;
2020/04/03 11:27:24;;;;;;;11.9;10.2;;;;;;;11.21;41.30957;957.5481;;;;
2020/04/03 11:29:49;;;;;;;24.6;21.3;;;;;;;11.24;41.45117;957.5591;;;;
2020/04/03 11:32:14;;;;;;;15.4;13.6;;;;;;;11.24;41.41602;957.5461;;;;
2020/04/03 11:34:39;;;;;;;13;11.7;;;;;;;11.16;41.81152;957.6016;;;;
2020/04/03 11:37:04;;;;;;;12.5;10.6;;;;;;;11.03;41.90234;957.5359;;;;
2020/04/03 11:39:29;;;;;;;11.8;10;;;;;;;11.15;41.91504;957.5196;;;;
2020/04/03 11:41:55;;;;;;;12.2;9.5;;;;;;;11.31;41.1582;957.5236;;;;
2020/04/03 11:44:20;;;;;;;9.6;8.6;;;;;;;11.41;40.80957;957.5908;;;;
2020/04/03 11:46:45;;;;;;;11.4;9;;;;;;;11.48;41.09277;957.5246;;;;
2020/04/03 11:49:10;;;;;;;10.2;8.5;;;;;;;11.38;40.42676;957.4664;;;;
2020/04/03 11:51:35;;;;;;;10.2;8.9;;;;;;;11.3;40.42969;957.4775;;;;
2020/04/03 11:54:00;;;;;;;9.9;8.9;;;;;;;11.45;40.94043;957.4451;;;;
2020/04/03 11:56:25;;;;;;;13.7;9.4;;;;;;;11.54;41.14551;957.447;;;;
2020/04/03 11:58:50;;;;;;;9.8;8.8;;;;;;;11.81;40.89355;957.4476;;;;
2020/04/03 12:01:17;;;;;;;9.9;8.9;;;;;;;11.63;41.53516;957.408;;;;
2020/04/03 12:03:41;;;;;;;11.2;10.1;;;;;;;11.78;41.21387;957.4554;;;;
2020/04/03 12:06:06;;;;;;;10.5;8.5;;;;;;;12.19;42.59277;957.4272;;;;
2020/04/03 12:08:31;;;;;;;10.6;9.5;;;;;;;11.53;40.3252;957.3736;;;;
2020/04/03 12:10:56;;;;;;;11.5;9.4;;;;;;;12.03;41.17969;957.3638;;;;
2020/04/03 12:13:21;;;;;;;10.7;9.5;;;;;;;12.28;40.41797;957.4191;;;;
2020/04/03 12:15:47;;;;;;;10.7;9.3;;;;;;;12.33;40.66602;957.387;;;;
2020/04/03 12:18:12;;;;;;;10.3;9.2;;;;;;;12.45;39.72852;957.4059;;;;
2020/04/03 12:20:37;;;;;;;10.6;9.6;;;;;;;12.79;39.94531;957.4402;;;;
2020/04/03 12:23:02;;;;;;;10.8;9.3;;;;;;;12.08;40.05273;957.3608;;;;
2020/04/03 12:25:27;;;;;;;10.8;9.5;;;;;;;11.79;41.45703;957.3039;;;;
2020/04/03 12:27:52;;;;;;;9.6;8.6;;;;;;;12.73;39.81152;957.3589;;;;
2020/04/03 12:30:17;;;;;;;10.5;9.2;;;;;;;13.4;39.57227;957.3998;;;;
2020/04/03 12:32:42;;;;;;;10.8;9.2;;;;;;;13.41;38.86621;957.3886;;;;
2020/04/03 12:35:07;;;;;;;10.6;9.5;;;;;;;13.31;38.66113;957.3428;;;;
2020/04/03 12:37:32;;;;;;;11.7;9.5;;;;;;;12.72;40.25098;957.3017;;;;
2020/04/03 12:39:57;;;;;;;12.8;9.7;;;;;;;12.62;39.4668;957.3441;;;;
2020/04/03 12:42:22;;;;;;;10.3;9.2;;;;;;;12.59;39.34863;957.3106;;;;
2020/04/03 12:44:48;;;;;;;10.1;9;;;;;;;12.59;40.43555;957.2761;;;;
2020/04/03 12:47:13;;;;;;;10.5;8.8;;;;;;;12.72;40.19336;957.2633;;;;
2020/04/03 12:49:38;;;;;;;9.5;8.5;;;;;;;12.38;39.82715;957.3564;;;;
2020/04/03 12:52:03;;;;;;;9.5;8.4;;;;;;;12.02;40.54395;957.2532;;;;
2020/04/03 12:54:28;;;;;;;10.1;8.5;;;;;;;12.06;40.57031;957.2546;;;;
2020/04/03 12:56:53;;;;;;;9;8.1;;;;;;;12.04;39.93359;957.2935;;;;
2020/04/03 12:59:18;;;;;;;10.3;7.9;;;;;;;11.96;39.96191;957.3301;;;;
2020/04/03 13:01:43;;;;;;;9.6;7.6;;;;;;;12.08;39.40625;957.2451;;;;
2020/04/03 13:04:08;;;;;;;10.2;7.6;;;;;;;11.99;39.9873;957.3088;;;;
2020/04/03 13:06:34;;;;;;;9.8;7.9;;;;;;;11.62;41.18652;957.3141;;;;
2020/04/03 13:08:59;;;;;;;8.3;7.5;;;;;;;11.78;40.29004;957.2407;;;;
2020/04/03 13:11:24;;;;;;;8.4;7.5;;;;;;;11.65;40.50977;957.2786;;;;
2020/04/03 13:13:50;;;;;;;8;7.2;;;;;;;11.46;41.43652;957.2313;;;;
2020/04/03 13:16:15;;;;;;;9.4;7.7;;;;;;;11.75;40.23047;957.175;;;;
2020/04/03 13:18:40;;;;;;;8.1;7;;;;;;;12.3;40.35156;957.202;;;;
2020/04/03 13:21:05;;;;;;;8;6.9;;;;;;;12.22;39.63867;957.1922;;;;
2020/04/03 13:23:30;;;;;;;7.8;7;;;;;;;12.33;39.18652;957.1606;;;;
2020/04/03 13:25:55;;;;;;;9.1;7.3;;;;;;;12.7;38.56055;957.2164;;;;
2020/04/03 13:28:20;;;;;;;8.3;6.6;;;;;;;13.39;38.85352;957.182;;;;
2020/04/03 13:30:45;;;;;;;7.7;6.2;;;;;;;13.65;37.28809;957.2413;;;;
2020/04/03 13:33:10;;;;;;;7.1;6.4;;;;;;;13.76;38.48047;957.2054;;;;
2020/04/03 13:35:35;;;;;;;7.9;6.2;;;;;;;13.64;37.46191;957.2831;;;;
2020/04/03 13:38:00;;;;;;;8.1;6.9;;;;;;;13.65;37.47363;957.2896;;;;
2020/04/03 13:40:25;;;;;;;8.2;7.4;;;;;;;13.76;37.45996;957.2078;;;;
2020/04/03 13:42:50;;;;;;;9.6;7.1;;;;;;;13.73;36.81934;957.2488;;;;
2020/04/03 13:45:16;;;;;;;9.6;7.2;;;;;;;13.36;37.57617;957.2531;;;;
2020/04/03 13:47:41;;;;;;;8.8;6.9;;;;;;;13.49;37.64551;957.2449;;;;
2020/04/03 13:50:06;;;;;;;9.7;7.2;;;;;;;13.46;37.52734;957.2562;;;;
2020/04/03 13:52:31;;;;;;;8.6;7.6;;;;;;;13.09;38.41016;957.245;;;;
2020/04/03 13:54:56;;;;;;;8.7;7.3;;;;;;;12.96;39.47461;957.2427;;;;
2020/04/03 13:57:21;;;;;;;6.6;6;;;;;;;12.88;36.96777;957.2397;;;;
2020/04/03 13:59:46;;;;;;;7.2;5.8;;;;;;;13.42;37.39551;957.2509;;;;
2020/04/03 14:02:12;;;;;;;7.6;5.5;;;;;;;13.39;36.87109;957.1911;;;;
2020/04/03 14:04:37;;;;;;;7.1;6.1;;;;;;;13.39;36.41992;957.2336;;;;
2020/04/03 14:07:02;;;;;;;7.4;6;;;;;;;13.2;36.57813;957.2342;;;;
2020/04/03 14:09:27;;;;;;;6.8;5.8;;;;;;;12.91;37.72266;957.2554;;;;
2020/04/03 14:11:52;;;;;;;6.8;5.3;;;;;;;12.97;38.27148;957.2745;;;;